createdAt,value
2019-03-04T03:42:13.854Z,99185.28
2019-03-04T05:26:06.157Z,99051.09
2019-03-04T07:09:13.885Z,98879.47
2019-03-04T07:11:43.928Z,98864.41
2019-03-04T07:17:57.561Z,98860.05
2019-03-04T07:20:28.130Z,98858.59
2019-03-04T07:22:57.609Z,98855.47
2019-03-04T07:25:28.350Z,98868.37
2019-03-04T07:30:51.728Z,98837.50
2019-03-04T07:33:21.234Z,98829.08
2019-03-04T07:39:02.982Z,98818.49
2019-03-04T07:41:32.250Z,98796.05
2019-03-04T07:47:36.786Z,98785.65
2019-03-04T07:50:47.874Z,98783.28
2019-03-04T07:56:19.437Z,98757.00
2019-03-04T08:14:25.352Z,98732.66
2019-03-04T08:35:56.186Z,98618.22
2019-03-04T08:38:25.699Z,98628.11
2019-03-04T08:44:04.578Z,98614.47
2019-03-04T08:46:34.740Z,98602.73
2019-03-04T08:57:32.906Z,98588.89
2019-03-04T09:06:46.175Z,98581.26
2019-03-04T09:16:03.760Z,98566.03
2019-03-04T09:22:11.174Z,98548.17
2019-03-04T09:24:41.090Z,98525.30
2019-03-04T09:27:11.488Z,98522.52
2019-03-04T09:41:03.732Z,98526.41
2019-03-04T09:43:33.184Z,98527.22
2019-03-04T10:05:05.570Z,98505.28
2019-03-04T10:11:30.174Z,98493.58
2019-03-04T10:14:40.229Z,98477.71
2019-03-04T10:17:49.369Z,98471.72
2019-03-04T10:20:59.534Z,98446.41
2019-03-04T10:52:57.399Z,98390.38
2019-03-04T10:58:36.563Z,98383.42
2019-03-04T11:01:30.618Z,98386.06
2019-03-04T11:15:44.128Z,98434.34
2019-03-04T11:26:44.655Z,98452.31
2019-03-04T11:29:14.264Z,98579.19
2019-03-04T11:32:03.831Z,98582.25
2019-03-04T11:37:13.905Z,98596.03
2019-03-04T11:40:03.070Z,98600.08
2019-03-04T11:46:02.812Z,98621.78
2019-03-04T11:54:55.094Z,98613.21
2019-03-04T11:57:25.702Z,98575.30
2019-03-04T12:03:24.562Z,98562.88
2019-03-04T12:05:54.456Z,98550.09
2019-03-04T12:24:34.734Z,98522.84
2019-03-04T12:27:04.340Z,98508.98
2019-03-04T12:29:54.346Z,98521.15
2019-03-04T12:32:24.448Z,98518.86
2019-03-04T12:35:15.148Z,98510.97
2019-03-04T12:41:20.853Z,98512.17
2019-03-04T13:03:20.077Z,98458.58
2019-03-04T13:09:14.467Z,98455.89
2019-03-04T13:11:59.118Z,98453.00
2019-03-04T13:14:28.861Z,98456.91
2019-03-04T13:28:35.805Z,98420.99
2019-03-04T13:34:14.250Z,98396.12
2019-03-04T13:43:27.169Z,98389.75
2019-03-04T13:45:57.245Z,98391.95
2019-03-04T13:48:26.827Z,98398.25
2019-03-04T13:50:56.577Z,98375.59
2019-03-04T14:02:53.061Z,98384.92
2019-03-04T14:08:50.142Z,98356.94
2019-03-04T14:11:40.941Z,98353.66
2019-03-04T14:26:15.877Z,98368.97
2019-03-04T14:29:35.256Z,98356.41
2019-03-04T14:35:01.092Z,98368.49
2019-03-04T14:37:33.147Z,98370.15
2019-03-04T14:40:03.170Z,98373.61
2019-03-04T14:48:38.347Z,98368.81
2019-03-04T14:51:51.086Z,98381.55
2019-03-04T14:54:41.064Z,98372.15
2019-03-04T15:04:07.849Z,98372.11
2019-03-04T15:12:55.943Z,98376.89
2019-03-04T15:16:05.687Z,98363.96
2019-03-04T15:27:52.771Z,98359.89
2019-03-04T15:30:41.115Z,98363.27
2019-03-04T15:39:22.865Z,98344.38
2019-03-04T15:41:50.719Z,98348.88
2019-03-04T15:47:36.735Z,98329.81
2019-03-04T15:53:25.309Z,98330.82
2019-03-04T15:55:54.713Z,98323.00
2019-03-04T15:58:43.876Z,98316.34
2019-03-04T16:01:13.187Z,98329.16
2019-03-04T16:03:42.990Z,98339.53
2019-03-04T16:09:16.644Z,98504.61
2019-03-04T16:11:47.148Z,98533.35
2019-03-04T16:14:55.458Z,98549.95
2019-03-04T16:17:44.742Z,98577.64
2019-03-04T16:20:57.264Z,98582.31
2019-03-04T16:23:25.882Z,98591.91
2019-03-04T16:25:54.526Z,98599.57
2019-03-04T16:28:25.540Z,98586.47
2019-03-04T16:30:54.644Z,98586.84
2019-03-04T16:33:23.650Z,98599.07
2019-03-04T16:35:54.221Z,98599.89
2019-03-04T16:38:31.339Z,98601.62
2019-03-04T16:40:59.983Z,98619.66
2019-03-04T16:43:28.468Z,98621.80
2019-03-04T16:45:57.021Z,98625.48
2019-03-04T16:48:25.680Z,98619.19
2019-03-04T16:50:54.563Z,98632.20
2019-03-04T16:53:26.284Z,98624.03
2019-03-04T16:55:55.117Z,98638.73
2019-03-04T16:58:23.676Z,98641.83
2019-03-04T17:00:52.954Z,98648.71
2019-03-04T17:03:21.805Z,98664.72
2019-03-04T17:05:50.452Z,98654.73
2019-03-04T17:08:18.975Z,98652.29
2019-03-04T17:10:47.647Z,98653.62
2019-03-04T17:13:16.257Z,98650.55
2019-03-04T17:15:45.188Z,98653.08
2019-03-04T17:18:13.817Z,98648.44
2019-03-04T17:20:42.431Z,98645.78
2019-03-04T17:23:11.133Z,98654.67
2019-03-04T17:25:39.727Z,98664.91
2019-03-04T17:28:08.457Z,98669.09
2019-03-04T17:30:37.044Z,98684.98
2019-03-04T17:33:05.747Z,98685.09
2019-03-04T17:35:34.289Z,98692.03
2019-03-04T17:38:02.918Z,98701.23
2019-03-04T17:40:31.709Z,98704.41
2019-03-04T17:43:00.301Z,98712.09
2019-03-04T17:45:31.747Z,98711.60
2019-03-04T17:48:00.366Z,98721.17
2019-03-04T17:50:40.645Z,98725.07
2019-03-04T17:53:13.839Z,98721.31
2019-03-04T17:55:43.148Z,98733.16
2019-03-04T17:58:11.726Z,98723.75
2019-03-04T18:00:41.953Z,98731.20
2019-03-04T18:03:10.640Z,98740.09
2019-03-04T18:05:39.296Z,98738.34
2019-03-04T18:08:09.057Z,98740.28
2019-03-04T18:10:38.331Z,98737.75
2019-03-04T18:13:09.506Z,98745.49
2019-03-04T18:15:41.619Z,98742.63
2019-03-04T18:18:10.675Z,98746.72
2019-03-04T18:20:39.459Z,98749.78
2019-03-04T18:23:08.316Z,98757.73
2019-03-04T18:25:56.108Z,98756.41
2019-03-04T18:28:58.044Z,98755.09
2019-03-04T18:31:47.517Z,98756.41
2019-03-04T18:34:30.666Z,98755.83
2019-03-04T18:37:23.195Z,98755.59
2019-03-04T18:40:00.528Z,98764.48
2019-03-04T18:42:57.746Z,98765.63
2019-03-04T18:45:35.624Z,98766.52
2019-03-04T18:48:27.121Z,98777.86
2019-03-04T18:50:55.758Z,98775.08
2019-03-04T18:53:24.411Z,98771.00
2019-03-04T18:55:53.241Z,98789.89
2019-03-04T18:58:22.022Z,98776.63
2019-03-04T19:00:50.657Z,98786.53
2019-03-04T19:03:19.184Z,98784.98
2019-03-04T19:05:47.932Z,98796.32
2019-03-04T19:08:16.490Z,98793.55
2019-03-04T19:10:45.163Z,98794.06
2019-03-04T19:13:13.798Z,98801.52
2019-03-04T19:15:42.433Z,98812.34
2019-03-04T19:18:11.193Z,98821.63
2019-03-04T19:20:39.701Z,98822.96
2019-03-04T19:23:08.239Z,98827.33
2019-03-04T19:25:36.780Z,98833.88
2019-03-04T19:28:05.398Z,98837.55
2019-03-04T19:30:34.069Z,98836.22
2019-03-04T19:33:02.714Z,98854.68
2019-03-04T19:35:31.345Z,98852.02
2019-03-04T19:38:00.015Z,98859.91
2019-03-04T19:40:28.612Z,98852.02
2019-03-04T19:42:57.320Z,98864.27
2019-03-04T19:45:25.969Z,98863.97
2019-03-04T19:47:54.477Z,98856.82
2019-03-04T19:50:23.332Z,98855.49
2019-03-04T19:52:51.977Z,98862.86
2019-03-04T19:55:20.601Z,98871.22
2019-03-04T19:57:49.297Z,98868.25
2019-03-04T20:00:24.875Z,98870.91
2019-03-04T20:02:57.187Z,98874.68
2019-03-04T20:05:26.020Z,98880.81
2019-03-04T20:07:54.623Z,98888.38
2019-03-04T20:10:23.315Z,98884.80
2019-03-04T20:12:52.132Z,98885.30
2019-03-04T20:15:23.514Z,98894.59
2019-03-04T20:17:52.331Z,98894.08
2019-03-04T20:20:20.968Z,98888.25
2019-03-04T20:22:49.654Z,98904.18
2019-03-04T20:25:18.998Z,98898.68
2019-03-04T20:27:47.920Z,98902.55
2019-03-04T20:30:18.065Z,98896.14
2019-03-04T20:32:46.855Z,98890.09
2019-03-04T20:35:17.382Z,98898.79
2019-03-04T20:37:48.949Z,98906.02
2019-03-04T20:40:17.803Z,98910.83
2019-03-04T20:42:46.535Z,98896.73
2019-03-04T20:45:16.423Z,98928.00
2019-03-04T20:47:45.190Z,98915.23
2019-03-04T20:50:19.780Z,98925.23
2019-03-04T20:52:48.524Z,98930.23
2019-03-04T20:55:17.325Z,98935.86
2019-03-04T20:57:46.068Z,98942.09
2019-03-04T21:00:17.995Z,98952.41
2019-03-04T21:02:46.874Z,98950.34
2019-03-04T21:05:15.734Z,98956.59
2019-03-04T21:07:44.412Z,98960.38
2019-03-04T21:10:13.650Z,98968.42
2019-03-04T21:12:42.480Z,98958.63
2019-03-04T21:15:12.467Z,98980.99
2019-03-04T21:17:41.164Z,98962.91
2019-03-04T21:20:12.242Z,98980.67
2019-03-04T21:22:40.882Z,98983.84
2019-03-04T21:25:14.976Z,98980.88
2019-03-04T21:27:43.633Z,98980.25
2019-03-04T21:30:23.493Z,98994.14
2019-03-04T21:32:52.124Z,98994.26
2019-03-04T21:35:52.894Z,98989.83
2019-03-04T21:38:23.279Z,98995.02
2019-03-04T21:40:57.607Z,98994.61
2019-03-04T21:43:32.946Z,99001.02
2019-03-04T21:46:07.589Z,99017.24
2019-03-04T21:48:41.907Z,99012.11
2019-03-04T21:51:16.872Z,99008.36
2019-03-04T21:53:48.997Z,99015.69
2019-03-04T21:56:26.345Z,99031.08
2019-03-04T21:58:55.414Z,99027.92
2019-03-04T22:01:29.744Z,99036.36
2019-03-04T22:03:58.658Z,99029.14
2019-03-04T22:06:27.170Z,99050.16
2019-03-04T22:08:56.138Z,99046.97
2019-03-04T22:11:24.648Z,99054.30
2019-03-04T22:13:53.278Z,99054.89
2019-03-04T22:16:21.870Z,99063.39
2019-03-04T22:18:50.353Z,99059.41
2019-03-04T22:21:19.151Z,99059.60
2019-03-04T22:23:47.781Z,99071.13
2019-03-04T22:26:16.402Z,99069.07
2019-03-04T22:28:45.060Z,99072.13
2019-03-04T22:31:13.575Z,99083.53
2019-03-04T22:33:42.252Z,99078.77
2019-03-04T22:36:10.818Z,99093.64
2019-03-04T22:38:39.696Z,99097.87
2019-03-04T22:41:08.235Z,99094.45
2019-03-04T22:43:36.890Z,99114.76
2019-03-04T22:46:05.481Z,99117.47
2019-03-04T22:48:34.086Z,99123.59
2019-03-04T22:51:02.695Z,99126.69
2019-03-04T22:53:31.288Z,99119.56
2019-03-04T22:55:59.850Z,99122.17
2019-03-04T22:58:29.153Z,99125.11
2019-03-04T23:01:02.781Z,99131.45
2019-03-04T23:03:34.425Z,99128.55
2019-03-04T23:06:21.034Z,99131.60
2019-03-04T23:08:49.934Z,99137.05
2019-03-04T23:11:20.329Z,99140.94
2019-03-04T23:14:01.093Z,99131.11
2019-03-04T23:16:31.930Z,99150.05
2019-03-04T23:19:00.450Z,99152.41
2019-03-04T23:21:29.107Z,99158.08
2019-03-04T23:23:57.664Z,99165.53
2019-03-04T23:26:26.527Z,99155.30
2019-03-04T23:28:55.204Z,99163.06
2019-03-04T23:31:24.066Z,99166.12
2019-03-04T23:33:52.695Z,99162.70
2019-03-04T23:36:21.287Z,99162.75
2019-03-04T23:38:49.910Z,99166.91
2019-03-04T23:41:18.473Z,99170.01
2019-03-04T23:43:47.047Z,99176.77
2019-03-04T23:46:15.517Z,99173.30
2019-03-04T23:48:44.296Z,99184.72
2019-03-04T23:51:12.897Z,99171.75
2019-03-04T23:53:41.496Z,99183.08
2019-03-04T23:56:10.063Z,99169.50
2019-03-04T23:58:38.625Z,99180.24
